createdAt,value
2022-09-06T00:02:11.625Z,15.30
2022-09-06T00:06:01.001Z,15.28
2022-09-06T00:09:50.935Z,15.16
2022-09-06T00:13:41.404Z,15.00
2022-09-06T00:17:30.913Z,14.91
2022-09-06T00:21:20.507Z,14.86
2022-09-06T00:25:10.030Z,14.84
2022-09-06T00:28:59.744Z,14.75
2022-09-06T00:32:48.971Z,14.72
2022-09-06T00:36:40.832Z,14.67
2022-09-06T00:40:30.354Z,14.61
2022-09-06T00:44:20.239Z,14.53
2022-09-06T00:48:09.634Z,14.47
2022-09-06T00:51:58.742Z,14.36
2022-09-06T00:55:48.433Z,14.33
2022-09-06T00:59:37.633Z,14.32
2022-09-06T01:03:26.885Z,14.27
2022-09-06T01:07:19.520Z,14.15
2022-09-06T01:11:27.000Z,14.04
2022-09-06T01:15:21.177Z,14.01
2022-09-06T01:19:38.607Z,13.91
2022-09-06T01:23:43.019Z,13.82
2022-09-06T01:27:33.942Z,13.79
2022-09-06T01:31:23.087Z,13.73
2022-09-06T01:35:12.458Z,13.64
2022-09-06T01:39:02.384Z,13.48
2022-09-06T01:42:55.232Z,13.41
2022-09-06T01:46:42.591Z,13.29
2022-09-06T01:50:55.698Z,13.14
2022-09-06T01:55:06.310Z,12.89
2022-09-06T01:59:10.376Z,12.80
2022-09-06T02:03:02.838Z,12.75
2022-09-06T02:06:54.678Z,12.70
2022-09-06T02:10:44.318Z,12.63
2022-09-06T02:14:36.939Z,12.57
2022-09-06T02:18:26.157Z,12.51
2022-09-06T02:22:15.823Z,12.51
2022-09-06T02:26:07.998Z,12.42
2022-09-06T02:29:57.892Z,12.33
2022-09-06T02:33:49.615Z,12.33
2022-09-06T02:37:38.788Z,12.29
2022-09-06T02:41:28.204Z,12.24
2022-09-06T02:45:17.888Z,12.22
2022-09-06T02:49:07.997Z,12.20
2022-09-06T02:52:57.245Z,12.25
2022-09-06T02:56:51.547Z,12.04
2022-09-06T03:00:41.603Z,11.92
2022-09-06T03:04:31.555Z,11.90
2022-09-06T03:08:21.873Z,11.91
2022-09-06T03:12:11.202Z,12.00
2022-09-06T03:16:01.170Z,11.90
2022-09-06T03:19:51.513Z,11.86
2022-09-06T03:23:40.861Z,11.83
2022-09-06T03:27:30.191Z,11.84
2022-09-06T03:31:19.501Z,11.93
2022-09-06T03:35:09.205Z,11.89
2022-09-06T03:38:59.038Z,11.78
2022-09-06T03:42:48.653Z,11.73
2022-09-06T03:46:37.634Z,11.66
2022-09-06T03:50:27.199Z,11.66
2022-09-06T03:54:16.520Z,11.60
2022-09-06T03:58:06.195Z,11.57
2022-09-06T04:02:01.512Z,11.46
2022-09-06T04:05:51.439Z,11.35
2022-09-06T04:09:41.775Z,11.32
2022-09-06T04:13:35.627Z,11.34
2022-09-06T04:17:24.847Z,11.51
2022-09-06T04:21:14.573Z,11.53
2022-09-06T04:25:04.219Z,11.44
2022-09-06T04:28:53.631Z,11.38
2022-09-06T04:32:43.114Z,11.41
2022-09-06T04:36:33.384Z,11.53
2022-09-06T04:40:24.309Z,11.51
2022-09-06T04:44:14.766Z,11.84
2022-09-06T04:48:04.834Z,11.84
2022-09-06T04:51:54.647Z,11.55
2022-09-06T04:55:44.098Z,11.61
2022-09-06T04:59:33.294Z,11.71
2022-09-06T05:03:23.159Z,12.21
2022-09-06T05:07:15.359Z,12.42
2022-09-06T05:11:05.023Z,12.58
2022-09-06T05:14:55.443Z,12.66
2022-09-06T05:18:44.874Z,12.83
2022-09-06T05:22:33.778Z,13.11
2022-09-06T05:26:23.743Z,12.84
2022-09-06T05:30:12.852Z,13.03
2022-09-06T05:34:03.093Z,12.97
2022-09-06T05:37:53.290Z,13.11
2022-09-06T05:41:42.465Z,13.21
2022-09-06T05:45:31.978Z,13.33
2022-09-06T05:49:21.469Z,13.78
2022-09-06T05:53:12.151Z,13.98
2022-09-06T05:57:01.462Z,14.06
2022-09-06T06:00:51.010Z,14.09
2022-09-06T06:04:40.453Z,14.04
2022-09-06T06:08:29.837Z,14.21
2022-09-06T06:12:19.619Z,14.33
2022-09-06T06:16:09.491Z,14.58
2022-09-06T06:20:00.080Z,15.14
2022-09-06T06:23:51.230Z,15.37
2022-09-06T06:27:48.284Z,15.04
2022-09-06T06:31:45.906Z,15.34
2022-09-06T06:35:39.578Z,15.48
2022-09-06T06:39:32.901Z,15.65
2022-09-06T06:43:22.053Z,15.58
2022-09-06T06:47:14.096Z,15.57
2022-09-06T06:51:03.371Z,15.93
2022-09-06T06:54:53.001Z,16.20
2022-09-06T06:58:42.761Z,16.08
2022-09-06T07:02:32.532Z,16.28
2022-09-06T07:06:21.840Z,16.46
2022-09-06T07:14:20.227Z,19.15
2022-09-06T07:18:09.476Z,20.11
2022-09-06T07:24:44.474Z,20.97
2022-09-06T07:28:10.195Z,21.65
2022-09-06T07:35:47.763Z,22.34
2022-09-06T07:39:36.876Z,22.91
2022-09-06T07:43:25.793Z,22.39
2022-09-06T07:51:17.963Z,21.60
2022-09-06T07:55:08.287Z,21.92
2022-09-06T07:57:50.259Z,21.57
2022-09-06T08:01:22.136Z,21.70
2022-09-06T08:09:06.442Z,22.30
2022-09-06T08:12:32.167Z,22.20
2022-09-06T08:15:42.279Z,21.91
2022-09-06T08:19:11.246Z,22.54
2022-09-06T08:22:50.959Z,22.49
2022-09-06T08:26:40.621Z,22.85
2022-09-06T08:30:12.966Z,23.13
2022-09-06T08:33:18.072Z,22.78
2022-09-06T08:37:07.705Z,23.10
2022-09-06T08:40:56.676Z,23.16
2022-09-06T08:48:42.968Z,23.33
2022-09-06T08:52:41.818Z,23.77
2022-09-06T08:56:45.038Z,24.12
2022-09-06T09:00:33.966Z,24.11
2022-09-06T09:04:23.195Z,24.03
2022-09-06T09:08:20.963Z,24.27
2022-09-06T09:12:10.110Z,24.29
2022-09-06T09:15:58.970Z,24.35
2022-09-06T09:19:48.243Z,24.73
2022-09-06T09:23:37.410Z,23.97
2022-09-06T09:27:35.087Z,24.36
2022-09-06T09:31:24.175Z,24.40
2022-09-06T09:35:15.754Z,24.40
2022-09-06T09:39:10.486Z,25.18
2022-09-06T09:43:11.279Z,26.01
2022-09-06T09:47:15.314Z,25.58
2022-09-06T09:51:04.091Z,26.18
2022-09-06T09:54:57.984Z,26.94
2022-09-06T09:58:46.757Z,26.76
2022-09-06T10:02:19.353Z,26.50
2022-09-06T10:06:04.668Z,26.38
2022-09-06T10:09:53.675Z,26.47
2022-09-06T10:13:48.162Z,25.50
2022-09-06T10:17:42.940Z,26.39
2022-09-06T10:21:43.807Z,26.72
2022-09-06T10:25:25.624Z,26.71
2022-09-06T10:29:19.441Z,26.63
2022-09-06T10:33:08.530Z,26.84
2022-09-06T10:36:57.502Z,26.00
2022-09-06T10:40:46.536Z,27.33
2022-09-06T10:44:33.817Z,27.59
2022-09-06T10:48:35.267Z,28.86
2022-09-06T10:52:42.334Z,28.39
2022-09-06T10:56:31.236Z,27.24
2022-09-06T11:00:28.799Z,27.65
2022-09-06T11:04:13.947Z,28.48
2022-09-06T11:12:23.509Z,28.47
2022-09-06T11:16:06.738Z,28.10
2022-09-06T11:19:55.754Z,28.81
2022-09-06T11:23:42.715Z,27.85
2022-09-06T11:27:32.765Z,28.88
2022-09-06T11:35:39.224Z,27.95
2022-09-06T11:43:39.004Z,27.46
2022-09-06T11:47:34.600Z,26.74
2022-09-06T11:51:39.569Z,26.75
2022-09-06T11:55:31.885Z,27.54
2022-09-06T11:59:30.774Z,28.55
2022-09-06T12:02:45.185Z,28.90
2022-09-06T12:06:33.978Z,29.43
2022-09-06T12:10:23.931Z,29.27
2022-09-06T12:14:15.294Z,28.70
2022-09-06T12:18:04.569Z,27.08
2022-09-06T12:21:56.344Z,27.96
2022-09-06T12:25:45.606Z,28.26
2022-09-06T12:29:31.974Z,28.37
2022-09-06T12:33:14.126Z,28.50
2022-09-06T12:37:34.436Z,27.89
2022-09-06T12:41:16.431Z,27.46
2022-09-06T12:44:46.536Z,27.41
2022-09-06T12:48:46.301Z,27.96
2022-09-06T12:52:46.061Z,27.87
2022-09-06T12:56:25.776Z,27.98
2022-09-06T12:59:39.724Z,28.12
2022-09-06T13:03:03.830Z,27.72
2022-09-06T13:06:48.893Z,27.27
2022-09-06T13:10:43.285Z,27.28
2022-09-06T13:14:33.625Z,27.66
2022-09-06T13:18:16.824Z,28.20
2022-09-06T13:22:12.778Z,28.52
2022-09-06T13:26:02.622Z,28.30
2022-09-06T13:29:54.578Z,28.06
2022-09-06T13:33:46.848Z,27.32
2022-09-06T13:37:41.822Z,26.89
2022-09-06T13:41:36.851Z,26.97
2022-09-06T13:45:28.893Z,27.32
2022-09-06T13:49:18.359Z,26.84
2022-09-06T13:53:07.567Z,26.25
2022-09-06T13:56:57.077Z,25.78
2022-09-06T14:00:21.119Z,25.91
2022-09-06T14:04:12.885Z,26.36
2022-09-06T14:07:56.612Z,26.25
2022-09-06T14:11:48.278Z,26.09
2022-09-06T14:15:27.836Z,26.49
2022-09-06T14:19:16.142Z,26.61
2022-09-06T14:22:46.174Z,26.54
2022-09-06T14:26:15.180Z,26.48
2022-09-06T14:29:36.268Z,26.29
2022-09-06T14:33:25.924Z,26.26
2022-09-06T14:37:15.225Z,26.11
2022-09-06T14:40:56.638Z,25.75
2022-09-06T14:44:39.034Z,25.86
2022-09-06T14:48:12.207Z,25.46
2022-09-06T14:52:01.407Z,25.45
2022-09-06T14:55:46.603Z,25.12
2022-09-06T14:59:35.754Z,25.50
2022-09-06T15:03:22.835Z,25.20
2022-09-06T15:07:12.162Z,24.82
2022-09-06T15:11:01.472Z,24.86
2022-09-06T15:14:57.520Z,24.85
2022-09-06T15:18:40.758Z,24.88
2022-09-06T15:22:31.355Z,24.61
2022-09-06T15:25:58.494Z,24.62
2022-09-06T15:29:30.415Z,24.49
2022-09-06T15:33:01.663Z,24.44
2022-09-06T15:36:12.078Z,24.50
2022-09-06T15:39:57.151Z,24.23
2022-09-06T15:43:46.767Z,24.25
2022-09-06T15:47:38.249Z,24.12
2022-09-06T15:50:50.910Z,24.20
2022-09-06T15:54:23.355Z,24.02
2022-09-06T15:58:13.845Z,23.94
2022-09-06T16:01:44.474Z,23.90
2022-09-06T16:09:40.081Z,23.73
2022-09-06T16:12:55.190Z,23.67
2022-09-06T16:16:24.477Z,23.73
2022-09-06T16:19:50.319Z,23.51
2022-09-06T16:23:24.775Z,23.43
2022-09-06T16:27:14.220Z,23.42
2022-09-06T16:30:53.940Z,23.40
2022-09-06T16:34:24.574Z,23.30
2022-09-06T16:37:54.184Z,23.24
2022-09-06T16:41:29.183Z,23.10
2022-09-06T16:45:05.349Z,22.99
2022-09-06T16:48:37.780Z,22.86
2022-09-06T16:51:22.354Z,22.85
2022-09-06T16:54:24.611Z,22.83
2022-09-06T16:57:43.235Z,22.70
2022-09-06T17:00:57.501Z,22.60
2022-09-06T17:04:17.972Z,22.41
2022-09-06T17:07:47.161Z,22.25
2022-09-06T17:10:50.622Z,22.21
2022-09-06T17:14:21.192Z,22.11
2022-09-06T17:17:15.461Z,22.02
2022-09-06T17:21:05.229Z,21.99
2022-09-06T17:24:37.775Z,21.87
2022-09-06T17:27:58.209Z,21.70
2022-09-06T17:31:26.834Z,21.59
2022-09-06T17:35:08.887Z,21.50
2022-09-06T17:38:22.587Z,21.36
2022-09-06T17:42:17.933Z,21.37
2022-09-06T17:45:41.849Z,21.32
2022-09-06T17:48:54.296Z,21.28
2022-09-06T17:51:51.772Z,21.15
2022-09-06T17:55:00.833Z,21.05
2022-09-06T17:58:15.349Z,21.01
2022-09-06T18:01:22.797Z,20.96
2022-09-06T18:04:35.565Z,20.87
2022-09-06T18:07:55.588Z,20.76
2022-09-06T18:11:26.035Z,20.72
2022-09-06T18:15:15.769Z,20.65
2022-09-06T18:18:59.470Z,20.58
2022-09-06T18:22:09.910Z,20.58
2022-09-06T18:26:02.192Z,20.58
2022-09-06T18:29:36.764Z,20.63
2022-09-06T18:32:33.214Z,20.64
2022-09-06T18:36:17.350Z,20.60
2022-09-06T18:38:59.786Z,20.64
2022-09-06T18:42:23.675Z,20.59
2022-09-06T18:45:59.079Z,20.59
2022-09-06T18:49:43.269Z,20.52
2022-09-06T18:52:23.650Z,20.37
2022-09-06T18:55:50.888Z,20.27
2022-09-06T18:59:27.166Z,20.19
2022-09-06T19:02:19.783Z,20.11
2022-09-06T19:06:13.921Z,20.03
2022-09-06T19:09:31.315Z,19.86
2022-09-06T19:12:58.646Z,19.74
2022-09-06T19:16:30.335Z,19.66
2022-09-06T19:19:56.048Z,19.57
2022-09-06T19:22:33.045Z,19.47
2022-09-06T19:26:14.919Z,19.40
2022-09-06T19:29:19.949Z,19.26
2022-09-06T19:32:30.821Z,19.04
2022-09-06T19:36:12.338Z,18.88
2022-09-06T19:39:20.786Z,18.83
2022-09-06T19:42:25.169Z,18.80
2022-09-06T19:45:40.259Z,18.73
2022-09-06T19:49:13.592Z,18.71
2022-09-06T19:52:17.708Z,18.63
2022-09-06T19:55:10.933Z,18.56
2022-09-06T19:57:57.735Z,18.48
2022-09-06T20:00:46.584Z,18.42
2022-09-06T20:03:43.094Z,18.35
2022-09-06T20:06:15.054Z,18.31
2022-09-06T20:09:36.065Z,18.24
2022-09-06T20:12:12.973Z,18.23
2022-09-06T20:15:26.877Z,18.25
2022-09-06T20:18:29.473Z,18.19
2022-09-06T20:21:22.301Z,18.18
2022-09-06T20:24:08.668Z,18.19
2022-09-06T20:26:49.082Z,18.19
2022-09-06T20:29:40.592Z,18.21
2022-09-06T20:32:17.811Z,18.18
2022-09-06T20:35:46.725Z,18.15
2022-09-06T20:39:19.444Z,18.19
2022-09-06T20:42:11.768Z,18.26
2022-09-06T20:45:29.320Z,18.29
2022-09-06T20:48:44.424Z,18.29
2022-09-06T20:52:09.185Z,18.42
2022-09-06T20:55:39.240Z,18.55
2022-09-06T20:58:10.720Z,18.39
2022-09-06T21:01:22.887Z,18.31
2022-09-06T21:04:16.283Z,18.28
2022-09-06T21:07:03.590Z,18.40
2022-09-06T21:10:22.723Z,18.31
2022-09-06T21:13:44.993Z,18.40
2022-09-06T21:16:37.517Z,18.14
2022-09-06T21:20:26.551Z,18.03
2022-09-06T21:24:15.841Z,17.96
2022-09-06T21:27:47.558Z,17.91
2022-09-06T21:31:17.535Z,17.90
2022-09-06T21:34:52.468Z,17.78
2022-09-06T21:37:55.121Z,17.63
2022-09-06T21:41:23.817Z,17.52
2022-09-06T21:44:33.112Z,17.39
2022-09-06T21:47:26.469Z,17.40
2022-09-06T21:49:57.731Z,17.33
2022-09-06T21:52:32.562Z,17.25
2022-09-06T21:55:20.903Z,17.27
2022-09-06T21:58:16.460Z,17.24
2022-09-06T22:00:54.954Z,17.13
2022-09-06T22:04:23.872Z,17.26
2022-09-06T22:07:12.412Z,16.89
2022-09-06T22:09:56.175Z,16.83
2022-09-06T22:13:25.055Z,16.70
2022-09-06T22:16:56.825Z,16.69
2022-09-06T22:19:43.496Z,16.68
2022-09-06T22:23:17.961Z,16.66
2022-09-06T22:26:02.384Z,16.66
2022-09-06T22:29:03.397Z,16.66
2022-09-06T22:32:09.762Z,16.65
2022-09-06T22:35:16.796Z,16.50
2022-09-06T22:38:45.726Z,16.24
2022-09-06T22:41:33.280Z,16.06
2022-09-06T22:44:51.947Z,15.87
2022-09-06T22:47:46.669Z,15.71
2022-09-06T22:50:17.703Z,15.60
2022-09-06T22:53:27.364Z,15.64
2022-09-06T22:56:39.367Z,15.62
2022-09-06T22:59:31.641Z,15.50
2022-09-06T23:03:20.681Z,15.40
2022-09-06T23:07:09.563Z,15.31
2022-09-06T23:09:46.074Z,15.22
2022-09-06T23:13:35.264Z,15.12
2022-09-06T23:17:14.187Z,15.08
2022-09-06T23:21:03.160Z,15.07
2022-09-06T23:24:44.835Z,15.05
2022-09-06T23:28:27.716Z,14.98
2022-09-06T23:31:48.071Z,14.87
2022-09-06T23:34:32.969Z,14.87
2022-09-06T23:37:53.845Z,14.87
2022-09-06T23:41:31.447Z,14.90
2022-09-06T23:44:34.128Z,14.99
2022-09-06T23:47:55.237Z,15.03
2022-09-06T23:51:45.034Z,15.04
2022-09-06T23:55:26.809Z,15.03
2022-09-06T23:58:07.700Z,14.95
